« Back
NWS Peachtree City, Ga » Text Product » MCN Terminal Aerodrome Forecast


Printer-friendly Version
Current Version              Previous Versions:   1  2  3  4  5  6  7  8  9  

Terminal Aerodrome Forecast

451
FTUS42 KFFC 011720
TAFMCN
TAF
KMCN 011720Z 0118/0218 22005KT P6SM VCSH SCT045
     FM012300 00000KT P6SM FEW250
     FM020800 00000KT 4SM BR FEW015
     FM021400 25004KT P6SM FEW040=



USA.gov is the U.S. government's official web portal to all federal, state and local government web resources and services.